Wednesday, October 24, 2018, 3:30 AM GMT
Back to Local

CYYB, North Bay, Ont.

Location: , , Canada Lat: 46.35
Local Time: 3:30 AM GMT ( 3:30 GMT) Lon: -79.433
Time Zone: GMT Elev: 1174 ft

Show me the last for .
Show Coded

Time T Td Feel RH Dir Speed Gust Alt SLP Vis Weather Sky Remarks
2018-10-24 03:24 34 32 21 93 340° 17 25 30.09 30.14 9 BKN009 BKN014 OVC027 None
2018-10-24 03:14 34 34 21 100 330° 15 25 30.09 30.14 9 OVC011 None
2018-10-24 03:00 34 34 21 100 330° 17 25 30.09 30.14 9 BKN009 OVC014 None
2018-10-24 02:00 34 34 21 100 330° 17 24 30.08 30.13 10 -SN BKN007 OVC018 None
2018-10-24 01:00 34 34 21 100 330° 16 25 30.06 30.11 10 -SN BKN007 OVC022 None
2018-10-24 00:00 34 34 22 100 320° 14 21 30.05 30.10 10 -SN OVC005 None
2018-10-23 23:00 34 34 24 100 320° 16 - 30.03 30.09 10 -SN OVC005 None
2018-10-23 22:00 34 34 22 100 340° 13 22 30.00 30.05 15 -SN BKN007 OVC035 None
2018-10-23 21:50 34 34 21 100 330° 15 24 30.00 30.05 15 -SN BKN007 OVC030 None
2018-10-23 21:00 34 34 21 100 330° 14 25 29.98 30.03 12 -RASN BKN005 OVC024 None
2018-10-23 20:00 37 36 26 93 330° 13 23 29.96 30.00 12 -RASN OVC007 None
2018-10-23 19:18 37 36 27 93 330° 13 20 29.94 29.99 20 -RA BKN007 OVC017 None
2018-10-23 19:00 39 37 29 93 340° 10 21 29.94 29.98 20 -RA SCT009 OVC019 None
2018-10-23 18:45 39 37 29 93 350° 13 22 29.94 29.98 20 -RA SCT009 OVC017 None
2018-10-23 18:18 39 37 29 93 330° 13 22 29.93 29.97 20 -RA OVC017 None
2018-10-23 18:00 41 37 31 86 320° 16 22 29.93 29.97 20 OVC019 None
2018-10-23 17:00 41 36 36 80 40° 7 - 29.92 29.96 20 BKN017 OVC040 None
2018-10-23 16:00 41 36 36 80 50° 7 - 29.92 29.96 15 BKN040 OVC060 None
2018-10-23 15:00 41 36 36 80 110° 7 - 29.91 29.95 20 BKN060 BKN110 None
2018-10-23 14:00 37 36 33 93 110° 6 - 29.89 29.94 15 SCT080 SCT130 BKN260 None
2018-10-23 13:00 36 34 25 93 80° 8 17 29.90 29.95 15 BKN075 BKN090 BKN220 None
2018-10-23 12:00 34 34 25 100 60° 13 - 29.90 29.94 15 BKN075 BKN160 None
2018-10-23 11:00 36 34 29 93 100° 9 - 29.90 29.94 15 BKN070 OVC095 None
2018-10-23 10:00 36 34 31 93 120° 6 - 29.90 29.94 9 FEW065 BKN088 OVC110 None
2018-10-23 09:00 36 34 31 93 110° 6 - 29.91 29.95 9 BKN055 OVC073 None
2018-10-23 08:00 37 34 32 86 90° 7 - 29.91 29.95 9 SCT060 OVC075 None
2018-10-23 07:00 37 34 32 86 170° 7 - 29.92 29.96 9 OVC085 None
2018-10-23 06:00 36 34 28 93 190° 10 - 29.93 29.97 9 BKN100 None
2018-10-23 05:00 36 34 28 93 180° 10 - 29.95 29.99 9 OVC110 None
2018-10-23 04:00 36 32 28 86 190° 12 - 29.95 30.00 9 BKN110 BKN140 None

Support USWX by starting your Amazon purchase here.